Pilote(s) en ligne...
 F-FRAS (Alain)  
 F-PIER (pierrot)  Vol    K1N2/KRJD

Compagnie Fsx-France ! Un nouveau look pour votre VA, par : Julien & Co

 METAR ET TAF INFORMATION
METAR FOR EDFM
ADDS - METARS form results

(0642 UTC 14 July 2020)
Data provider http://aviationweather.gov/metar/data/
 
METAR text: EDFM 140620Z VRB01KT CAVOK 19/10 Q1016
Conditions at: EDFM (MANNHEIM , DE) observed 0620 UTC 14 July 2020
Temperature: 19.0°C (66°F)
Dewpoint: 10.0°C (50°F) [RH = 56%]
Pressure (altimeter): 30.00 inches Hg (1016.0 mb)
Winds: variable direction winds at 1 MPH (1 knots; 0.5 m/s)
Visibility: 6 or more miles (10+ km)
Ceiling: ceiling and visibility are OK
Clouds: unknown
Weather: no significant weather observed at this time

METAR text: EDFM 140550Z 00000KT CAVOK 19/10 Q1016
Conditions at: EDFM (MANNHEIM , DE) observed 0550 UTC 14 July 2020
Temperature: 19.0°C (66°F)
Dewpoint: 10.0°C (50°F) [RH = 56%]
Pressure (altimeter): 30.00 inches Hg (1016.0 mb)
Winds: calm
Visibility: 6 or more miles (10+ km)
Ceiling: ceiling and visibility are OK
Clouds: unknown
Weather: no significant weather observed at this time

Forecast for: EDFM (MANNHEIM , DE)
Text: TAF EDFM 140619Z 1407/1415 VRB02KT CAVOK
Forecast period: 0700 to 1500 UTC 14 July 2020
Forecast type: FROM: standard forecast or significant change
Winds: variable direction winds at 2 MPH (2 knots; 1.0 m/s)
Visibility: 6 or more miles 10+ km)
Ceiling: unknown
Clouds: missing
Weather: NSW  (no significant weather)
Text: BECMG 1407/1410 23006KT
Forecast period: 0700 to 1500 UTC 14 July 2020
Forecast type: BECOMING: Conditions expected to become as follows by 1000 UTC 14 July 2020
Winds: from the SW (230 degrees) at 7 MPH (6 knots; 3.1 m/s)
Visibility: 6 or more miles 10+ km)
Ceiling: unknown
Clouds: missing
Weather: NSW  (no significant weather)

 AÉROPORT DE AÉROPORT

 INFORMATIONS DE PISTE
Piste 09 Longueur de la piste 1066 m = 3497 ft Largeur de la piste 25 m = 82 ft
Élévation de la piste 309 ft Seuil de la piste déplacés 19 ft Runway heading 93
Piste 27 Longueur de la piste 1066 m = 3497 ft Largeur de la piste 25 m = 82 ft
Élévation de la piste 306 ft Seuil de la piste déplacés 174 ft Runway heading 273
Piste 09L Longueur de la piste 700 m = 2297 ft Largeur de la piste 30 m = 98 ft
Élévation de la piste 0 ft Seuil de la piste déplacés 246 ft Runway heading 92
Piste 27R Longueur de la piste 700 m = 2297 ft Largeur de la piste 30 m = 98 ft
Élévation de la piste 0 ft Seuil de la piste déplacés 82 ft Runway heading 272
 AÉROPORT FRÉQUENCES
Type APP Nom COLEMAN AP Féquence 130.5 MHZ
Type ATIS Nom ATIS Féquence 136.55 MHZ
Type CNTR Nom LANGEN RAD Féquence 127.5 MHZ
Type INFO Nom INFO Féquence 118.4 MHZ
Type TWR Nom TWR Féquence 118.4 MHZ
Type TWR Nom COLEMAN TW Féquence 122.1 MHZ

 AIDES A LA NAVIGATION
Type DME Nom Mannheim Féquence 113550 KHZ